Time;durP1;ratioP1;P1;durP2;ratioP2;P2;SDS_P1;SDS_P2;PMS_P1;PMS_P2;Temp;Humidity;BMP_temperature;BMP_pressure;BME280_temperature;BME280_humidity;BME280_pressure;Samples;Min_cycle;Max_cycle;Signal;HPM_P1;HPM_P2
2021/09/26 00:01:57;;;;;;;;;18.00;18.00;;;;;17.29;73.10;100185.56;4998234;28;45281;-87
2021/09/26 00:04:22;;;;;;;;;18.50;17.25;;;;;17.43;72.99;100202.16;4997935;28;45378;-88
2021/09/26 00:06:47;;;;;;;;;16.00;15.75;;;;;17.51;72.80;100208.69;4996621;28;45149;-87
2021/09/26 00:09:13;;;;;;;;;15.75;15.75;;;;;17.47;72.88;100197.34;5011426;28;45303;-88
2021/09/26 00:11:40;;;;;;;;;19.00;17.25;;;;;17.39;72.38;100184.59;4990850;28;45544;-89
2021/09/26 00:14:07;;;;;;;;;20.25;16.50;;;;;17.59;72.61;100209.69;4997422;28;46557;-88
2021/09/26 00:16:33;;;;;;;;;21.25;18.25;;;;;17.47;72.35;100202.72;5012716;28;45225;-89
2021/09/26 00:18:58;;;;;;;;;20.50;19.00;;;;;17.40;72.61;100196.19;4989849;28;45242;-88
2021/09/26 00:21:24;;;;;;;;;18.50;16.75;;;;;17.53;72.48;100215.63;4997696;28;45311;-88
2021/09/26 00:23:49;;;;;;;;;18.75;18.75;;;;;17.39;72.26;100203.41;4994913;28;45215;-88
2021/09/26 00:26:15;;;;;;;;;18.00;17.50;;;;;17.50;72.43;100228.47;4993044;28;45348;-89
2021/09/26 00:28:40;;;;;;;;;19.50;19.25;;;;;17.38;72.16;100212.47;4997250;28;45237;-89
2021/09/26 00:31:06;;;;;;;;;16.75;15.75;;;;;17.34;72.69;100202.13;4997550;28;45241;-89
2021/09/26 00:33:32;;;;;;;;;17.50;16.50;;;;;17.37;72.71;100221.53;5010753;28;47171;-89
2021/09/26 00:35:58;;;;;;;;;18.50;18.50;;;;;17.35;73.06;100228.03;4983714;28;45263;-90
2021/09/26 00:38:23;;;;;;;;;19.00;15.50;;;;;17.31;72.55;100230.13;4994753;28;45391;-87
2021/09/26 00:40:50;;;;;;;;;18.50;16.25;;;;;17.30;72.43;100235.63;5001429;28;45421;-88
2021/09/26 00:43:17;;;;;;;;;15.75;15.25;;;;;17.34;72.50;100231.69;5015159;28;47137;-90
2021/09/26 00:45:42;;;;;;;;;15.50;14.75;;;;;17.22;72.20;100221.03;5014253;28;45554;-90
2021/09/26 00:48:08;;;;;;;;;19.00;19.00;;;;;17.32;72.51;100239.06;5015134;28;46664;-88
2021/09/26 00:50:34;;;;;;;;;18.00;16.00;;;;;17.31;73.12;100240.03;5016198;28;45488;-88
2021/09/26 00:53:00;;;;;;;;;14.00;14.00;;;;;17.16;73.01;100232.34;4998824;28;47640;-89
2021/09/26 00:55:25;;;;;;;;;17.75;16.25;;;;;17.21;72.61;100250.72;4998985;28;45210;-88
2021/09/26 00:57:51;;;;;;;;;20.00;17.75;;;;;17.03;73.08;100224.50;5016080;28;45316;-89
2021/09/26 01:00:19;;;;;;;;;18.50;18.50;;;;;17.00;73.23;100208.69;4999618;28;45153;-89
2021/09/26 01:02:44;;;;;;;;;17.25;15.25;;;;;17.00;73.43;100206.00;5004828;28;47256;-89
2021/09/26 01:05:11;;;;;;;;;14.00;12.25;;;;;16.99;73.27;100198.91;5015438;28;45208;-88
2021/09/26 01:08:07;;;;;;;;;16.50;15.75;;;;;17.14;73.25;100225.41;5015851;28;45241;-88
2021/09/26 01:10:39;;;;;;;;;15.25;14.00;;;;;17.18;72.85;100246.47;4999541;28;45303;-89
2021/09/26 01:13:21;;;;;;;;;15.50;14.25;;;;;17.20;72.85;100233.78;5014329;28;48239;-88
2021/09/26 01:16:16;;;;;;;;;19.00;15.00;;;;;17.23;72.43;100227.28;5015379;28;45993;-90
2021/09/26 01:19:12;;;;;;;;;14.75;14.00;;;;;17.20;72.20;100216.78;4998911;28;45145;-88
2021/09/26 01:21:48;;;;;;;;;15.50;14.25;;;;;17.23;72.43;100221.91;4999176;28;45463;-89
2021/09/26 01:24:58;;;;;;;;;14.25;11.75;;;;;17.29;72.36;100223.19;5016157;28;45177;-89
2021/09/26 01:27:41;;;;;;;;;13.50;12.00;;;;;17.30;72.13;100231.13;5013898;28;45311;-89
2021/09/26 01:30:36;;;;;;;;;13.00;13.00;;;;;17.27;72.47;100236.75;5016935;28;45296;-89
2021/09/26 01:33:10;;;;;;;;;15.50;14.75;;;;;17.22;72.24;100229.09;5007281;28;45248;-89
2021/09/26 01:35:45;;;;;;;;;20.75;16.75;;;;;17.22;72.60;100239.84;5015123;28;48318;-88
2021/09/26 01:38:39;;;;;;;;;15.25;13.50;;;;;17.21;72.57;100248.88;5016979;28;45166;-88
2021/09/26 01:41:46;;;;;;;;;15.75;14.75;;;;;17.20;72.55;100252.59;4999567;28;45789;-89
2021/09/26 01:44:39;;;;;;;;;18.00;15.00;;;;;17.18;72.70;100256.38;4917164;28;45183;-89
2021/09/26 01:47:07;;;;;;;;;13.75;11.50;;;;;17.20;72.49;100257.09;4906453;28;45668;-88
2021/09/26 01:49:39;;;;;;;;;10.75;10.75;;;;;17.17;72.09;100257.38;4900949;28;46061;-88
2021/09/26 01:52:09;;;;;;;;;14.25;11.50;;;;;17.06;72.29;100244.88;4909133;28;45239;-88
2021/09/26 01:54:35;;;;;;;;;13.50;13.50;;;;;17.06;72.52;100251.09;4913902;28;45304;-90
2021/09/26 01:57:02;;;;;;;;;13.00;12.50;;;;;17.04;72.54;100249.53;4919790;28;47047;-89
2021/09/26 01:59:28;;;;;;;;;12.25;10.50;;;;;16.88;72.63;100221.31;4903949;28;45694;-90
2021/09/26 02:01:56;;;;;;;;;16.75;12.50;;;;;16.89;72.63;100223.03;4917829;28;45285;-90
2021/09/26 02:04:24;;;;;;;;;13.50;11.25;;;;;16.98;72.95;100248.22;4920275;28;45206;-89
2021/09/26 02:06:52;;;;;;;;;14.50;13.00;;;;;16.99;72.80;100235.66;4919735;28;48520;-89
2021/09/26 02:09:18;;;;;;;;;15.00;13.75;;;;;17.11;72.72;100250.69;4901774;28;45246;-89
2021/09/26 02:11:44;;;;;;;;;13.00;12.25;;;;;17.08;72.99;100241.06;4901226;28;45279;-90
2021/09/26 02:14:12;;;;;;;;;14.50;13.25;;;;;17.06;72.45;100226.94;4901278;29;45423;-90
2021/09/26 02:16:38;;;;;;;;;14.25;13.50;;;;;17.04;72.60;100228.03;4901130;28;45253;-89
2021/09/26 02:19:04;;;;;;;;;13.50;12.50;;;;;17.20;72.39;100243.66;4903454;28;45800;-90
2021/09/26 02:21:31;;;;;;;;;17.00;14.25;;;;;17.27;72.62;100250.19;4978053;28;45143;-88
2021/09/26 02:23:58;;;;;;;;;18.50;15.50;;;;;17.31;72.23;100248.09;4997480;28;45237;-88
2021/09/26 02:26:25;;;;;;;;;14.25;13.25;;;;;17.31;71.98;100257.00;4981772;28;48530;-90
2021/09/26 02:28:51;;;;;;;;;13.25;13.25;;;;;17.33;72.49;100246.09;4998772;28;45635;-88
2021/09/26 02:31:17;;;;;;;;;10.75;10.75;;;;;17.27;72.19;100236.75;4999014;28;45171;-88
2021/09/26 02:33:44;;;;;;;;;13.50;12.25;;;;;17.28;72.55;100238.47;4998196;28;45271;-88
2021/09/26 02:36:11;;;;;;;;;8.00;8.00;;;;;17.32;72.73;100241.75;4999328;28;45213;-87
2021/09/26 02:38:37;;;;;;;;;13.25;10.00;;;;;17.05;72.87;100197.53;4999415;28;45158;-89
2021/09/26 02:41:27;;;;;;;;;13.75;12.75;;;;;17.16;72.85;100205.47;4996920;28;45221;-89
2021/09/26 02:44:01;;;;;;;;;11.75;11.75;;;;;17.20;72.77;100220.34;5002265;28;45560;-88
2021/09/26 02:46:34;;;;;;;;;12.00;11.75;;;;;17.03;73.83;100212.91;5001409;28;48001;-90
2021/09/26 02:49:00;;;;;;;;;11.00;10.50;;;;;16.95;73.91;100220.81;5001417;28;45726;-88
2021/09/26 02:51:26;;;;;;;;;11.00;10.25;;;;;16.83;73.76;100212.81;5001428;28;45209;-89
2021/09/26 02:53:53;;;;;;;;;11.75;11.75;;;;;16.77;74.15;100221.38;5000996;28;45262;-88
2021/09/26 02:56:19;;;;;;;;;12.00;11.50;;;;;16.59;74.26;100206.84;5001488;28;47326;-88
2021/09/26 02:58:45;;;;;;;;;16.25;12.75;;;;;16.53;74.90;100203.75;5001212;28;45185;-88
2021/09/26 03:01:10;;;;;;;;;13.75;13.00;;;;;16.43;74.99;100191.22;5019126;28;45125;-90
2021/09/26 03:03:35;;;;;;;;;10.50;10.50;;;;;16.51;74.91;100212.91;5018218;28;45105;-88
2021/09/26 03:06:01;;;;;;;;;13.75;11.50;;;;;16.44;74.49;100209.88;4999849;28;46991;-89
2021/09/26 03:08:27;;;;;;;;;12.50;10.75;;;;;16.36;75.12;100197.13;4999878;28;45329;-89
2021/09/26 03:10:57;;;;;;;;;13.25;11.50;;;;;16.45;74.92;100203.53;5018440;28;45407;-88
2021/09/26 03:13:23;;;;;;;;;11.50;10.50;;;;;16.36;75.19;100194.44;5018671;28;45502;-90
2021/09/26 03:15:48;;;;;;;;;11.00;11.00;;;;;16.48;74.81;100202.44;5018597;28;45283;-88
2021/09/26 03:18:14;;;;;;;;;13.00;12.75;;;;;16.44;75.10;100199.16;5019234;28;45220;-89
2021/09/26 03:20:40;;;;;;;;;13.00;13.00;;;;;16.46;74.82;100205.25;5016413;28;45140;-89
2021/09/26 03:23:05;;;;;;;;;10.75;10.75;;;;;16.45;74.96;100198.19;4998703;28;45125;-89
2021/09/26 03:25:31;;;;;;;;;11.00;9.50;;;;;16.32;74.85;100170.72;4982342;28;47962;-89
2021/09/26 03:27:56;;;;;;;;;14.00;12.00;;;;;16.30;74.53;100164.59;5001111;28;45188;-88
2021/09/26 03:30:22;;;;;;;;;12.25;12.25;;;;;16.29;74.63;100168.25;5018695;28;45185;-89
2021/09/26 03:32:48;;;;;;;;;10.50;10.50;;;;;16.42;75.28;100179.66;5017219;28;45193;-89
2021/09/26 03:35:14;;;;;;;;;12.25;11.00;;;;;16.32;75.19;100174.22;5001268;28;47224;-90
2021/09/26 03:37:40;;;;;;;;;11.50;10.00;;;;;16.41;75.18;100191.38;5000374;28;45503;-89
2021/09/26 03:40:09;;;;;;;;;12.75;11.50;;;;;16.41;75.54;100186.00;5000945;28;45320;-89
2021/09/26 03:42:35;;;;;;;;;14.00;11.50;;;;;16.27;75.29;100159.50;5018740;28;45116;-89
2021/09/26 03:45:00;;;;;;;;;11.75;10.75;;;;;16.34;75.25;100182.97;4999129;28;47165;-88
2021/09/26 03:47:27;;;;;;;;;11.75;11.75;;;;;16.14;75.68;100157.88;5006464;28;45680;-89
2021/09/26 03:49:52;;;;;;;;;12.25;11.00;;;;;16.24;75.34;100176.72;5017561;28;45227;-90
2021/09/26 03:52:17;;;;;;;;;13.75;12.25;;;;;16.28;76.12;100188.03;5000203;28;45129;-88
2021/09/26 03:54:43;;;;;;;;;13.00;11.75;;;;;16.14;76.33;100167.75;5001839;28;47406;-89
2021/09/26 03:57:09;;;;;;;;;11.00;11.00;;;;;16.09;75.92;100161.91;5004575;28;45271;-88
2021/09/26 03:59:34;;;;;;;;;12.25;12.25;;;;;16.12;76.16;100169.69;5004145;28;45228;-89
2021/09/26 04:02:02;;;;;;;;;12.25;11.00;;;;;16.09;76.25;100162.78;5020408;28;45331;-88
2021/09/26 04:04:28;;;;;;;;;14.00;11.50;;;;;16.16;76.29;100168.47;5021174;28;46222;-89
2021/09/26 04:06:53;;;;;;;;;13.00;12.00;;;;;16.18;76.73;100170.03;5003965;28;45208;-87
2021/09/26 04:09:18;;;;;;;;;10.50;10.50;;;;;15.99;76.61;100141.25;5020310;28;45224;-89
2021/09/26 04:11:44;;;;;;;;;12.75;11.75;;;;;16.09;77.28;100157.44;5000397;28;45162;-89
2021/09/26 04:14:09;;;;;;;;;16.50;14.00;;;;;16.14;77.28;100167.75;4998801;28;46808;-89
2021/09/26 04:16:35;;;;;;;;;19.50;14.00;;;;;16.11;77.43;100160.81;5000119;28;45346;-89
2021/09/26 04:19:00;;;;;;;;;14.00;14.00;;;;;16.07;77.36;100153.16;5006092;28;45347;-90
2021/09/26 04:21:26;;;;;;;;;14.25;11.75;;;;;16.12;77.89;100167.00;4981297;28;45299;-89
2021/09/26 04:23:51;;;;;;;;;15.25;11.75;;;;;16.09;77.85;100162.78;4987842;28;46987;-90
2021/09/26 04:26:19;;;;;;;;;15.50;15.00;;;;;16.13;77.84;100164.22;5017159;28;45271;-89
2021/09/26 04:28:45;;;;;;;;;15.50;14.00;;;;;16.16;77.60;100171.16;5016166;28;45390;-88
2021/09/26 04:31:10;;;;;;;;;22.50;16.25;;;;;16.19;78.04;100169.06;4999825;28;45335;-89
2021/09/26 04:33:36;;;;;;;;;17.25;16.25;;;;;16.14;77.99;100155.19;5015884;28;47020;-91
2021/09/26 04:36:02;;;;;;;;;11.50;11.50;;;;;16.25;77.77;100161.44;4999213;28;45908;-88
2021/09/26 04:38:27;;;;;;;;;18.75;16.50;;;;;16.18;77.87;100145.06;4999881;28;45228;-88
2021/09/26 04:40:53;;;;;;;;;20.25;17.25;;;;;16.27;78.66;100151.47;4999985;28;45307;-88
2021/09/26 04:43:18;;;;;;;;;16.00;12.75;;;;;16.21;78.08;100140.25;5011637;28;48077;-88
2021/09/26 04:45:44;;;;;;;;;15.50;15.50;;;;;16.30;78.18;100159.25;4997790;28;45328;-90
2021/09/26 04:48:09;;;;;;;;;15.75;15.50;;;;;16.18;78.14;100135.16;4999822;28;45387;-88
2021/09/26 04:50:34;;;;;;;;;23.25;18.25;;;;;16.32;78.19;100159.97;4999382;28;45157;-88
2021/09/26 04:53:00;;;;;;;;;22.50;16.25;;;;;16.30;77.99;100161.94;4999224;28;47189;-89
2021/09/26 04:55:27;;;;;;;;;15.75;15.75;;;;;16.32;77.86;100168.03;4999148;28;45367;-90
2021/09/26 04:57:54;;;;;;;;;18.25;17.50;;;;;16.20;79.21;100159.19;5015391;28;45252;-89
2021/09/26 05:00:20;;;;;;;;;15.75;15.25;;;;;16.32;78.37;100173.38;5015720;28;45193;-88
2021/09/26 05:02:46;;;;;;;;;19.50;18.25;;;;;16.24;78.62;100165.97;4979687;28;48464;-89
2021/09/26 05:05:11;;;;;;;;;20.00;18.25;;;;;16.16;78.51;100142.50;4979503;28;45376;-88
2021/09/26 05:07:37;;;;;;;;;16.25;16.00;;;;;16.35;78.05;100176.66;4997668;28;45170;-88
2021/09/26 05:10:04;;;;;;;;;21.50;17.75;;;;;16.40;78.45;100176.25;4999554;28;45338;-88
2021/09/26 05:12:30;;;;;;;;;16.75;16.50;;;;;16.48;77.97;100183.66;4999422;28;47178;-89
2021/09/26 05:14:55;;;;;;;;;22.50;16.50;;;;;16.51;78.32;100191.44;4998965;28;45716;-88
2021/09/26 05:17:21;;;;;;;;;18.25;18.25;;;;;16.38;77.97;100175.53;5015775;28;45343;-88
2021/09/26 05:19:47;;;;;;;;;21.00;19.00;;;;;16.55;77.70;100193.72;4999465;28;45467;-89
2021/09/26 05:22:13;;;;;;;;;20.50;19.50;;;;;16.50;78.03;100171.81;4999314;28;47519;-89
2021/09/26 05:24:38;;;;;;;;;18.75;17.25;;;;;16.56;77.78;100183.84;4999254;28;45264;-88
2021/09/26 05:27:04;;;;;;;;;16.50;15.25;;;;;16.59;78.04;100183.56;5016756;28;45258;-88
2021/09/26 05:29:29;;;;;;;;;17.50;17.50;;;;;16.52;78.09;100185.94;5015919;28;45322;-88
2021/09/26 05:31:55;;;;;;;;;18.00;15.00;;;;;16.70;77.41;100212.16;5002920;28;46904;-89
2021/09/26 05:34:20;;;;;;;;;19.75;17.75;;;;;16.62;78.18;100202.09;5002682;28;45303;-89
2021/09/26 05:36:46;;;;;;;;;19.75;17.50;;;;;16.65;77.68;100207.19;5002840;28;45169;-89
2021/09/26 05:39:11;;;;;;;;;16.50;16.50;;;;;16.68;78.00;100216.81;5002356;28;45268;-90
2021/09/26 05:41:36;;;;;;;;;22.00;19.75;;;;;16.69;78.38;100227.41;5002237;28;48285;-90
2021/09/26 05:44:02;;;;;;;;;22.00;20.00;;;;;16.78;77.85;100252.63;5018588;28;45884;-89
2021/09/26 05:46:27;;;;;;;;;21.50;18.50;;;;;16.65;78.28;100239.41;4996313;28;45328;-89
2021/09/26 05:48:52;;;;;;;;;20.50;18.00;;;;;16.71;78.19;100246.06;5002910;28;45407;-88
2021/09/26 05:51:18;;;;;;;;;20.00;17.50;;;;;16.76;77.79;100257.28;5006445;28;48398;-90
2021/09/26 05:53:43;;;;;;;;;18.75;16.75;;;;;16.65;78.03;100239.41;5001997;28;45649;-89
2021/09/26 05:56:08;;;;;;;;;20.50;17.25;;;;;16.81;77.62;100259.56;5020024;28;45443;-89
2021/09/26 05:58:34;;;;;;;;;19.25;18.00;;;;;16.85;78.36;100271.75;4999780;28;45205;-89
2021/09/26 06:00:59;;;;;;;;;17.75;15.00;;;;;16.80;77.97;100264.09;5001418;28;46898;-91
2021/09/26 06:03:26;;;;;;;;;18.00;18.00;;;;;16.68;78.54;100252.56;5001890;28;45731;-91
2021/09/26 06:05:51;;;;;;;;;20.50;18.00;;;;;16.82;78.08;100277.38;5002109;28;45102;-89
2021/09/26 06:08:16;;;;;;;;;18.75;17.75;;;;;16.70;78.32;100265.84;4998391;28;45164;-89
2021/09/26 06:10:42;;;;;;;;;23.00;19.00;;;;;16.81;78.47;100278.34;5018244;28;48001;-89
2021/09/26 06:13:07;;;;;;;;;20.50;18.00;;;;;16.75;78.13;100263.63;4999119;28;45354;-89
2021/09/26 06:15:34;;;;;;;;;20.75;18.50;;;;;16.69;78.39;100259.63;5007570;28;45223;-89
2021/09/26 06:17:59;;;;;;;;;19.00;16.75;;;;;16.74;78.10;100257.41;5020827;28;45190;-91
2021/09/26 06:20:25;;;;;;;;;17.25;15.50;;;;;16.85;78.34;100261.00;5018564;28;47060;-89
2021/09/26 06:22:51;;;;;;;;;19.50;17.25;;;;;16.84;78.26;100264.66;4997080;28;45730;-89
2021/09/26 06:25:16;;;;;;;;;16.75;14.75;;;;;16.83;78.19;100262.94;5001484;28;45255;-90
2021/09/26 06:27:41;;;;;;;;;17.75;16.25;;;;;16.96;78.15;100276.19;4989336;28;45347;-89
2021/09/26 06:30:08;;;;;;;;;17.75;16.75;;;;;16.93;77.95;100274.66;5007789;28;47008;-89
2021/09/26 06:32:34;;;;;;;;;14.75;13.25;;;;;16.97;77.82;100283.28;5018870;28;45986;-91
2021/09/26 06:35:01;;;;;;;;;18.25;17.50;;;;;16.99;77.87;100278.63;5018294;28;45130;-89
2021/09/26 06:37:27;;;;;;;;;18.25;16.50;;;;;17.06;77.67;100288.72;5018311;28;45106;-90
2021/09/26 06:39:53;;;;;;;;;17.00;15.25;;;;;17.04;78.09;100287.97;5001438;28;47259;-90
2021/09/26 06:42:18;;;;;;;;;18.50;15.25;;;;;16.97;77.92;100270.69;5001678;28;45405;-89
2021/09/26 06:44:44;;;;;;;;;22.00;19.75;;;;;17.12;77.79;100291.84;5017614;28;45260;-90
2021/09/26 06:47:09;;;;;;;;;18.25;17.50;;;;;17.14;77.52;100293.41;5001610;28;45435;-91
2021/09/26 06:49:34;;;;;;;;;21.50;18.50;;;;;17.13;77.32;100291.72;5001975;28;46986;-89
2021/09/26 06:52:00;;;;;;;;;22.50;20.00;;;;;16.98;77.61;100268.88;5017981;28;45221;-90
2021/09/26 06:54:25;;;;;;;;;18.00;14.75;;;;;17.13;77.42;100289.03;5019006;28;45264;-89
2021/09/26 06:56:50;;;;;;;;;22.25;19.25;;;;;17.09;77.44;100287.59;5019307;28;45329;-89
2021/09/26 06:59:16;;;;;;;;;18.50;17.25;;;;;17.08;77.56;100277.81;5020644;28;46573;-89
2021/09/26 07:01:41;;;;;;;;;22.75;19.50;;;;;17.01;77.75;100280.19;5000873;28;45282;-91
2021/09/26 07:04:07;;;;;;;;;18.00;16.75;;;;;17.19;77.04;100314.50;5017245;28;45395;-90
2021/09/26 07:06:32;;;;;;;;;18.25;16.25;;;;;17.16;77.25;100304.00;4999553;28;45403;-90
2021/09/26 07:08:57;;;;;;;;;16.50;16.00;;;;;17.23;77.31;100299.81;5001524;28;48211;-89
2021/09/26 07:11:23;;;;;;;;;21.25;14.75;;;;;17.19;76.88;100291.16;5017938;28;45302;-89
2021/09/26 07:13:48;;;;;;;;;17.25;17.25;;;;;17.18;76.84;100288.63;5001070;28;45239;-88
2021/09/26 07:16:14;;;;;;;;;20.25;16.50;;;;;17.33;76.80;100295.34;5001069;28;45506;-88
2021/09/26 07:18:40;;;;;;;;;16.50;16.25;;;;;17.47;77.04;100307.53;5001254;28;47850;-88
2021/09/26 07:21:05;;;;;;;;;17.50;16.00;;;;;17.44;76.64;100299.75;5000135;28;45124;-86
2021/09/26 07:23:31;;;;;;;;;18.75;16.00;;;;;17.52;76.30;100310.69;5017672;28;45236;-86
2021/09/26 07:25:56;;;;;;;;;17.25;16.25;;;;;17.49;76.49;100302.06;5015509;28;45212;-86
2021/09/26 07:28:21;;;;;;;;;17.75;16.75;;;;;17.57;76.01;100312.94;5007358;28;47079;-87
2021/09/26 07:30:47;;;;;;;;;16.50;16.50;;;;;17.49;76.22;100304.75;4999572;28;45477;-87
2021/09/26 07:33:12;;;;;;;;;16.75;15.50;;;;;17.58;76.44;100311.97;5016481;28;45251;-88
2021/09/26 07:35:37;;;;;;;;;18.00;15.00;;;;;17.58;76.25;100314.66;5018431;28;45311;-87
2021/09/26 07:38:03;;;;;;;;;18.00;16.25;;;;;17.54;76.38;100302.47;5017368;28;46100;-92
2021/09/26 07:40:28;;;;;;;;;20.25;18.50;;;;;17.67;76.04;100324.63;4997127;28;45209;-89
2021/09/26 07:42:54;;;;;;;;;16.00;15.25;;;;;17.69;76.13;100328.00;4985599;28;45362;-92
2021/09/26 07:45:19;;;;;;;;;18.75;16.75;;;;;17.71;76.01;100325.16;5002684;28;45305;-92
2021/09/26 07:47:44;;;;;;;;;19.00;15.50;;;;;17.71;76.09;100331.38;5002269;28;47063;-92
2021/09/26 07:50:11;;;;;;;;;18.75;15.75;;;;;17.74;76.05;100333.84;5021579;28;45856;-93
2021/09/26 07:52:37;;;;;;;;;20.00;17.50;;;;;17.77;76.48;100338.06;5004096;28;45156;-92
2021/09/26 07:55:03;;;;;;;;;21.75;18.25;;;;;17.79;76.07;100346.03;4986056;28;45423;-89
2021/09/26 07:57:29;;;;;;;;;21.00;19.00;;;;;17.74;76.28;100331.16;4998397;28;47559;-88
2021/09/26 07:59:54;;;;;;;;;15.50;14.75;;;;;17.76;76.20;100328.31;4986576;28;45215;-91
2021/09/26 08:02:20;;;;;;;;;21.50;15.25;;;;;17.80;76.16;100329.75;4991110;28;45114;-86
2021/09/26 08:04:45;;;;;;;;;16.25;14.50;;;;;17.99;75.95;100346.94;5019996;28;45308;-86
2021/09/26 08:07:11;;;;;;;;;24.50;19.50;;;;;17.99;76.00;100349.66;5032659;28;45978;-88
2021/09/26 08:09:36;;;;;;;;;16.75;15.75;;;;;18.15;75.68;100346.41;5000059;28;45221;-89
2021/09/26 08:12:03;;;;;;;;;20.00;17.25;;;;;18.24;75.68;100345.56;5019700;28;45236;-90
2021/09/26 08:14:28;;;;;;;;;18.50;15.50;;;;;18.34;75.46;100351.81;5011930;28;45224;-88
2021/09/26 08:16:54;;;;;;;;;20.25;17.50;;;;;18.39;75.21;100333.41;5021797;28;45395;-88
2021/09/26 08:19:21;;;;;;;;;16.50;15.25;;;;;18.68;74.88;100354.06;5018601;28;45327;-86
2021/09/26 08:21:48;;;;;;;;;18.50;16.00;;;;;18.87;74.10;100357.78;5019502;28;45212;-86
2021/09/26 08:24:14;;;;;;;;;21.75;16.25;;;;;19.11;73.12;100363.56;5037021;28;45271;-89
2021/09/26 08:26:39;;;;;;;;;14.25;14.25;;;;;19.30;73.09;100364.53;5036144;28;46240;-90
2021/09/26 08:29:04;;;;;;;;;19.00;17.50;;;;;19.42;72.74;100375.97;5018435;28;45833;-89
2021/09/26 08:31:30;;;;;;;;;19.00;14.75;;;;;19.46;71.89;100380.91;4997272;28;45182;-90
2021/09/26 08:33:55;;;;;;;;;14.25;13.00;;;;;19.40;71.33;100372.59;5004507;28;45067;-89
2021/09/26 08:36:20;;;;;;;;;15.50;14.50;;;;;19.33;72.06;100364.22;5002419;28;46943;-89
2021/09/26 08:38:46;;;;;;;;;17.00;15.00;;;;;19.35;71.93;100370.31;5002272;28;45162;-90
2021/09/26 08:41:12;;;;;;;;;18.00;14.75;;;;;19.29;71.74;100366.34;5002290;28;45159;-89
2021/09/26 08:43:38;;;;;;;;;15.25;12.25;;;;;19.34;71.73;100378.53;5002605;28;45300;-92
2021/09/26 08:46:03;;;;;;;;;14.00;12.25;;;;;19.34;71.86;100371.31;5003009;28;48212;-92
2021/09/26 08:48:30;;;;;;;;;13.25;11.75;;;;;19.43;71.43;100386.59;5019579;28;45794;-91
2021/09/26 08:50:56;;;;;;;;;13.50;13.25;;;;;19.42;71.15;100379.50;5020681;28;45228;-92
2021/09/26 08:53:25;;;;;;;;;17.25;14.50;;;;;19.47;70.42;100379.09;5021183;28;45184;-91
2021/09/26 08:55:52;;;;;;;;;12.25;11.00;;;;;19.49;71.09;100383.31;5003007;28;47568;-91
2021/09/26 08:58:17;;;;;;;;;12.75;11.75;;;;;19.42;70.56;100363.31;5019564;28;45429;-87
2021/09/26 09:00:43;;;;;;;;;14.00;13.25;;;;;19.48;70.83;100359.19;5019101;28;45216;-89
2021/09/26 09:03:15;;;;;;;;;12.25;11.00;;;;;19.65;70.84;100371.91;5018693;28;45325;-89
2021/09/26 09:05:42;;;;;;;;;13.75;11.50;;;;;19.73;70.10;100363.06;5016253;28;48260;-90
2021/09/26 09:08:12;;;;;;;;;13.00;11.50;;;;;19.87;69.61;100369.03;5001730;28;45427;-90
2021/09/26 09:10:44;;;;;;;;;13.75;12.00;;;;;19.97;68.74;100370.66;5001351;28;45194;-88
2021/09/26 09:13:12;;;;;;;;;15.00;13.00;;;;;19.99;68.67;100363.25;4991155;28;45126;-89
2021/09/26 09:15:51;;;;;;;;;13.75;11.25;;;;;20.06;68.68;100352.69;5018296;28;47618;-89
2021/09/26 09:18:16;;;;;;;;;10.25;10.25;;;;;20.23;68.82;100361.81;5003116;28;46014;-88
2021/09/26 09:20:42;;;;;;;;;13.75;12.00;;;;;20.40;67.00;100367.41;5003218;28;45189;-87
2021/09/26 09:23:16;;;;;;;;;12.75;12.00;;;;;20.57;67.38;100361.16;5016684;28;45209;-89
2021/09/26 09:25:50;;;;;;;;;11.75;10.00;;;;;20.78;66.81;100373.50;5038473;28;47165;-88
2021/09/26 09:28:21;;;;;;;;;11.00;11.00;;;;;20.88;67.09;100377.00;4995748;28;46297;-87
2021/09/26 09:31:00;;;;;;;;;10.75;8.75;;;;;20.96;66.72;100378.91;5019262;28;45340;-91
2021/09/26 09:33:40;;;;;;;;;11.00;10.75;;;;;20.96;66.90;100387.84;5036133;28;44818;-92
2021/09/26 09:36:22;;;;;;;;;10.50;10.00;;;;;20.95;65.85;100391.56;5042874;28;48426;-90
2021/09/26 09:38:50;;;;;;;;;12.00;10.00;;;;;20.91;66.23;100387.47;5023371;28;45495;-89
2021/09/26 09:41:44;;;;;;;;;12.00;11.75;;;;;20.76;66.49;100384.47;5019946;28;44556;-91
2021/09/26 09:44:12;;;;;;;;;10.75;9.75;;;;;20.76;66.61;100397.97;5010505;28;44698;-90
2021/09/26 09:46:41;;;;;;;;;14.25;13.25;;;;;20.64;66.96;100383.84;4995097;28;47315;-86
2021/09/26 09:49:08;;;;;;;;;10.00;9.75;;;;;20.69;66.71;100391.50;5008791;28;45646;-87
2021/09/26 09:51:34;;;;;;;;;13.75;11.00;;;;;20.71;66.53;100394.03;4996527;28;45347;-88
2021/09/26 09:54:03;;;;;;;;;11.50;11.50;;;;;20.66;66.71;100384.53;5016257;28;44643;-89
2021/09/26 09:56:40;;;;;;;;;11.75;11.75;;;;;20.67;66.90;100396.22;4989035;28;47260;-82
2021/09/26 09:59:05;;;;;;;;;12.50;11.50;;;;;20.62;66.91;100395.78;4995097;28;45506;-88
2021/09/26 10:01:36;;;;;;;;;15.00;11.50;;;;;20.62;66.78;100399.34;4996837;28;45284;-82
2021/09/26 10:04:05;;;;;;;;;9.50;9.50;;;;;20.62;66.95;100401.19;4995498;28;45257;-84
2021/09/26 10:06:45;;;;;;;;;13.00;11.75;;;;;20.57;67.14;100401.66;4994153;28;45241;-82
2021/09/26 10:09:21;;;;;;;;;12.00;12.00;;;;;20.54;67.18;100399.28;4988400;28;45578;-82
2021/09/26 10:11:52;;;;;;;;;11.50;10.25;;;;;20.56;67.08;100399.94;4982229;28;45287;-82
2021/09/26 10:14:20;;;;;;;;;10.00;8.50;;;;;20.56;67.00;100396.41;4985958;28;45363;-82
2021/09/26 10:16:46;;;;;;;;;14.50;12.25;;;;;20.56;67.01;100399.94;4996852;28;45173;-82
2021/09/26 10:19:12;;;;;;;;;13.50;12.25;;;;;20.53;66.58;100397.56;4996877;28;45196;-83
2021/09/26 10:21:39;;;;;;;;;12.75;10.75;;;;;20.46;66.23;100393.78;4998294;28;45325;-84
2021/09/26 10:24:05;;;;;;;;;13.50;11.25;;;;;20.39;66.35;100398.09;4983201;28;45249;-83
2021/09/26 10:26:31;;;;;;;;;10.50;10.00;;;;;20.33;66.90;100392.28;4998692;28;46172;-83
2021/09/26 10:28:58;;;;;;;;;11.00;10.50;;;;;20.28;66.57;100396.44;4998691;28;45352;-88
2021/09/26 10:31:28;;;;;;;;;14.50;11.00;;;;;20.25;66.37;100396.75;4999222;28;45302;-87
2021/09/26 10:33:56;;;;;;;;;12.75;12.00;;;;;20.23;67.43;100396.91;4999125;28;45235;-87
2021/09/26 10:36:23;;;;;;;;;13.25;10.75;;;;;20.27;67.02;100389.38;4997947;28;46257;-87
2021/09/26 10:38:51;;;;;;;;;10.00;10.00;;;;;20.37;67.28;100389.31;4997618;28;45239;-87
2021/09/26 10:41:17;;;;;;;;;11.50;11.00;;;;;20.44;66.55;100387.69;5015460;28;45332;-89
2021/09/26 10:43:44;;;;;;;;;15.00;10.00;;;;;20.48;66.78;100389.09;5018100;28;45353;-89
2021/09/26 10:46:19;;;;;;;;;13.50;11.00;;;;;20.52;66.46;100391.31;5018119;28;46880;-87
2021/09/26 10:49:02;;;;;;;;;12.00;10.00;;;;;20.60;66.87;100395.94;5018692;28;45421;-87
2021/09/26 10:51:48;;;;;;;;;11.00;11.00;;;;;20.74;66.36;100388.34;5017388;28;45266;-88
2021/09/26 10:54:23;;;;;;;;;11.00;11.00;;;;;20.86;66.60;100387.09;5004150;28;45354;-83
2021/09/26 10:57:04;;;;;;;;;12.25;9.25;;;;;20.93;65.66;100376.50;5016103;28;46100;-82
2021/09/26 10:59:44;;;;;;;;;11.00;10.00;;;;;21.03;65.57;100388.06;5018045;28;45306;-83
2021/09/26 11:02:21;;;;;;;;;11.25;9.75;;;;;21.20;65.98;100384.47;5019129;28;45161;-82
2021/09/26 11:04:48;;;;;;;;;11.50;11.50;;;;;21.49;66.01;100380.63;5017705;28;45471;-79
2021/09/26 11:07:17;;;;;;;;;13.75;13.00;;;;;21.76;64.68;100381.44;5017346;28;46138;-79
2021/09/26 11:10:10;;;;;;;;;18.00;10.50;;;;;21.88;64.41;100372.03;5017215;28;45449;-82
2021/09/26 11:12:49;;;;;;;;;12.25;10.25;;;;;22.01;64.00;100371.56;5015634;28;45369;-82
2021/09/26 11:15:21;;;;;;;;;12.50;10.75;;;;;22.12;64.27;100362.31;5019467;28;45581;-82